sensor_id;sensor_type;location;lat;lon;timestamp;P1;durP1;ratioP1;P2;durP2;ratioP2
38435;SDS011;24220;48.168;14.024;2023-04-23T00:02:16;6.50;;;5.20;;
38435;SDS011;24220;48.168;14.024;2023-04-23T00:04:49;6.70;;;5.55;;
38435;SDS011;24220;48.168;14.024;2023-04-23T00:07:20;7.53;;;5.95;;
38435;SDS011;24220;48.168;14.024;2023-04-23T00:09:48;8.52;;;5.47;;
38435;SDS011;24220;48.168;14.024;2023-04-23T00:12:18;7.93;;;5.55;;
38435;SDS011;24220;48.168;14.024;2023-04-23T00:14:46;7.32;;;5.63;;
38435;SDS011;24220;48.168;14.024;2023-04-23T00:17:17;8.43;;;5.70;;
38435;SDS011;24220;48.168;14.024;2023-04-23T00:19:45;6.47;;;5.88;;
38435;SDS011;24220;48.168;14.024;2023-04-23T00:22:13;7.25;;;5.80;;
38435;SDS011;24220;48.168;14.024;2023-04-23T00:24:42;6.93;;;6.22;;
38435;SDS011;24220;48.168;14.024;2023-04-23T00:27:10;7.22;;;6.22;;
38435;SDS011;24220;48.168;14.024;2023-04-23T00:29:37;8.13;;;6.30;;
38435;SDS011;24220;48.168;14.024;2023-04-23T00:32:04;7.68;;;5.75;;
38435;SDS011;24220;48.168;14.024;2023-04-23T00:34:33;6.97;;;5.57;;
38435;SDS011;24220;48.168;14.024;2023-04-23T00:37:00;7.93;;;5.72;;
38435;SDS011;24220;48.168;14.024;2023-04-23T00:39:33;6.65;;;5.75;;
38435;SDS011;24220;48.168;14.024;2023-04-23T00:42:04;7.68;;;6.03;;
38435;SDS011;24220;48.168;14.024;2023-04-23T00:44:38;8.30;;;5.90;;
38435;SDS011;24220;48.168;14.024;2023-04-23T00:47:08;7.07;;;5.53;;
38435;SDS011;24220;48.168;14.024;2023-04-23T00:49:36;9.25;;;6.13;;
38435;SDS011;24220;48.168;14.024;2023-04-23T00:52:05;8.00;;;5.88;;
38435;SDS011;24220;48.168;14.024;2023-04-23T00:54:34;9.68;;;5.53;;
38435;SDS011;24220;48.168;14.024;2023-04-23T00:57:04;7.95;;;6.03;;
38435;SDS011;24220;48.168;14.024;2023-04-23T00:59:33;6.70;;;6.03;;
38435;SDS011;24220;48.168;14.024;2023-04-23T01:02:01;6.38;;;5.72;;
38435;SDS011;24220;48.168;14.024;2023-04-23T01:04:30;7.78;;;6.15;;
38435;SDS011;24220;48.168;14.024;2023-04-23T01:07:01;8.88;;;6.43;;
38435;SDS011;24220;48.168;14.024;2023-04-23T01:09:29;6.80;;;5.93;;
38435;SDS011;24220;48.168;14.024;2023-04-23T01:11:58;8.25;;;5.97;;
38435;SDS011;24220;48.168;14.024;2023-04-23T01:14:28;5.75;;;5.15;;
38435;SDS011;24220;48.168;14.024;2023-04-23T01:16:58;7.10;;;4.72;;
38435;SDS011;24220;48.168;14.024;2023-04-23T01:19:28;6.97;;;5.30;;
38435;SDS011;24220;48.168;14.024;2023-04-23T01:21:56;6.38;;;4.97;;
38435;SDS011;24220;48.168;14.024;2023-04-23T01:24:27;6.13;;;5.20;;
38435;SDS011;24220;48.168;14.024;2023-04-23T01:26:59;7.30;;;5.82;;
38435;SDS011;24220;48.168;14.024;2023-04-23T01:29:29;7.55;;;5.57;;
38435;SDS011;24220;48.168;14.024;2023-04-23T01:31:58;8.93;;;5.25;;
38435;SDS011;24220;48.168;14.024;2023-04-23T01:34:26;6.82;;;5.63;;
38435;SDS011;24220;48.168;14.024;2023-04-23T01:36:53;6.50;;;5.32;;
38435;SDS011;24220;48.168;14.024;2023-04-23T01:39:24;8.60;;;5.13;;
38435;SDS011;24220;48.168;14.024;2023-04-23T01:41:56;6.43;;;5.25;;
38435;SDS011;24220;48.168;14.024;2023-04-23T01:44:24;9.65;;;5.68;;
38435;SDS011;24220;48.168;14.024;2023-04-23T01:46:51;7.07;;;5.03;;
38435;SDS011;24220;48.168;14.024;2023-04-23T01:49:19;6.35;;;5.60;;
38435;SDS011;24220;48.168;14.024;2023-04-23T01:51:46;5.85;;;5.32;;
38435;SDS011;24220;48.168;14.024;2023-04-23T01:54:18;8.10;;;5.30;;
38435;SDS011;24220;48.168;14.024;2023-04-23T01:56:45;7.00;;;5.32;;
38435;SDS011;24220;48.168;14.024;2023-04-23T01:59:13;6.20;;;5.38;;
38435;SDS011;24220;48.168;14.024;2023-04-23T02:01:40;5.75;;;4.63;;
38435;SDS011;24220;48.168;14.024;2023-04-23T02:04:14;8.13;;;5.55;;
38435;SDS011;24220;48.168;14.024;2023-04-23T02:06:44;7.22;;;5.70;;
38435;SDS011;24220;48.168;14.024;2023-04-23T02:09:15;8.48;;;5.50;;
38435;SDS011;24220;48.168;14.024;2023-04-23T02:11:43;7.47;;;5.70;;
38435;SDS011;24220;48.168;14.024;2023-04-23T02:14:10;7.15;;;5.25;;
38435;SDS011;24220;48.168;14.024;2023-04-23T02:16:37;6.25;;;5.30;;
38435;SDS011;24220;48.168;14.024;2023-04-23T02:19:05;6.57;;;5.47;;
38435;SDS011;24220;48.168;14.024;2023-04-23T02:21:35;6.68;;;5.15;;
38435;SDS011;24220;48.168;14.024;2023-04-23T02:24:05;7.43;;;5.30;;
38435;SDS011;24220;48.168;14.024;2023-04-23T02:26:32;7.07;;;5.00;;
38435;SDS011;24220;48.168;14.024;2023-04-23T02:29:00;6.57;;;5.63;;
38435;SDS011;24220;48.168;14.024;2023-04-23T02:31:27;6.38;;;5.20;;
38435;SDS011;24220;48.168;14.024;2023-04-23T02:33:54;6.10;;;4.78;;
38435;SDS011;24220;48.168;14.024;2023-04-23T02:36:22;6.88;;;5.00;;
38435;SDS011;24220;48.168;14.024;2023-04-23T02:38:49;6.40;;;5.00;;
38435;SDS011;24220;48.168;14.024;2023-04-23T02:41:17;7.22;;;5.47;;
38435;SDS011;24220;48.168;14.024;2023-04-23T02:43:44;7.45;;;5.00;;
38435;SDS011;24220;48.168;14.024;2023-04-23T02:46:11;5.45;;;4.85;;
38435;SDS011;24220;48.168;14.024;2023-04-23T02:48:41;5.75;;;5.10;;
38435;SDS011;24220;48.168;14.024;2023-04-23T02:51:09;6.47;;;5.18;;
38435;SDS011;24220;48.168;14.024;2023-04-23T02:53:37;5.50;;;4.82;;
38435;SDS011;24220;48.168;14.024;2023-04-23T02:56:05;6.10;;;4.95;;
38435;SDS011;24220;48.168;14.024;2023-04-23T02:58:35;5.70;;;5.10;;
38435;SDS011;24220;48.168;14.024;2023-04-23T03:01:02;5.82;;;5.05;;
38435;SDS011;24220;48.168;14.024;2023-04-23T03:03:31;5.95;;;5.32;;
38435;SDS011;24220;48.168;14.024;2023-04-23T03:06:00;5.93;;;4.70;;
38435;SDS011;24220;48.168;14.024;2023-04-23T03:08:28;4.95;;;4.45;;
38435;SDS011;24220;48.168;14.024;2023-04-23T03:10:55;6.82;;;4.80;;
38435;SDS011;24220;48.168;14.024;2023-04-23T03:13:23;5.65;;;5.05;;
38435;SDS011;24220;48.168;14.024;2023-04-23T03:15:51;5.20;;;4.70;;
38435;SDS011;24220;48.168;14.024;2023-04-23T03:18:21;6.32;;;5.22;;
38435;SDS011;24220;48.168;14.024;2023-04-23T03:20:49;6.10;;;5.50;;
38435;SDS011;24220;48.168;14.024;2023-04-23T03:23:16;6.25;;;4.88;;
38435;SDS011;24220;48.168;14.024;2023-04-23T03:25:46;6.63;;;4.90;;
38435;SDS011;24220;48.168;14.024;2023-04-23T03:28:13;6.57;;;5.30;;
38435;SDS011;24220;48.168;14.024;2023-04-23T03:30:41;5.90;;;4.97;;
38435;SDS011;24220;48.168;14.024;2023-04-23T03:33:10;5.63;;;4.82;;
38435;SDS011;24220;48.168;14.024;2023-04-23T03:35:38;6.18;;;4.85;;
38435;SDS011;24220;48.168;14.024;2023-04-23T03:38:07;7.03;;;5.40;;
38435;SDS011;24220;48.168;14.024;2023-04-23T03:40:37;5.90;;;5.10;;
38435;SDS011;24220;48.168;14.024;2023-04-23T03:43:04;6.32;;;4.97;;
38435;SDS011;24220;48.168;14.024;2023-04-23T03:45:31;7.85;;;5.13;;
38435;SDS011;24220;48.168;14.024;2023-04-23T03:47:59;7.13;;;5.30;;
38435;SDS011;24220;48.168;14.024;2023-04-23T03:50:26;7.97;;;5.82;;
38435;SDS011;24220;48.168;14.024;2023-04-23T03:52:53;63.35;;;45.67;;
38435;SDS011;24220;48.168;14.024;2023-04-23T03:55:21;40.15;;;31.40;;
38435;SDS011;24220;48.168;14.024;2023-04-23T03:57:51;22.42;;;17.67;;
38435;SDS011;24220;48.168;14.024;2023-04-23T04:00:18;13.38;;;10.77;;
38435;SDS011;24220;48.168;14.024;2023-04-23T04:02:45;8.75;;;6.78;;
38435;SDS011;24220;48.168;14.024;2023-04-23T04:05:13;7.70;;;6.32;;
38435;SDS011;24220;48.168;14.024;2023-04-23T04:07:43;6.07;;;5.17;;
38435;SDS011;24220;48.168;14.024;2023-04-23T04:10:11;6.38;;;5.45;;
38435;SDS011;24220;48.168;14.024;2023-04-23T04:12:38;6.18;;;5.15;;
38435;SDS011;24220;48.168;14.024;2023-04-23T04:15:07;8.02;;;5.50;;
38435;SDS011;24220;48.168;14.024;2023-04-23T04:17:37;6.30;;;5.43;;
38435;SDS011;24220;48.168;14.024;2023-04-23T04:20:05;6.25;;;5.30;;
38435;SDS011;24220;48.168;14.024;2023-04-23T04:22:41;5.63;;;5.13;;
38435;SDS011;24220;48.168;14.024;2023-04-23T04:25:12;6.80;;;5.63;;
38435;SDS011;24220;48.168;14.024;2023-04-23T04:27:42;6.15;;;5.28;;
38435;SDS011;24220;48.168;14.024;2023-04-23T04:30:11;6.18;;;5.40;;
38435;SDS011;24220;48.168;14.024;2023-04-23T04:32:39;8.52;;;5.72;;
38435;SDS011;24220;48.168;14.024;2023-04-23T04:35:11;6.13;;;5.20;;
38435;SDS011;24220;48.168;14.024;2023-04-23T04:37:40;7.65;;;5.50;;
38435;SDS011;24220;48.168;14.024;2023-04-23T04:40:09;6.55;;;5.68;;
38435;SDS011;24220;48.168;14.024;2023-04-23T04:42:40;6.60;;;5.50;;
38435;SDS011;24220;48.168;14.024;2023-04-23T04:45:08;6.57;;;5.18;;
38435;SDS011;24220;48.168;14.024;2023-04-23T04:47:38;6.07;;;5.32;;
38435;SDS011;24220;48.168;14.024;2023-04-23T04:50:05;7.10;;;5.32;;
38435;SDS011;24220;48.168;14.024;2023-04-23T04:52:34;6.50;;;5.80;;
38435;SDS011;24220;48.168;14.024;2023-04-23T04:55:01;10.45;;;5.28;;
38435;SDS011;24220;48.168;14.024;2023-04-23T04:57:32;6.55;;;5.85;;
38435;SDS011;24220;48.168;14.024;2023-04-23T05:00:00;6.30;;;5.70;;
38435;SDS011;24220;48.168;14.024;2023-04-23T05:02:44;7.10;;;5.15;;
38435;SDS011;24220;48.168;14.024;2023-04-23T05:05:13;8.05;;;5.43;;
38435;SDS011;24220;48.168;14.024;2023-04-23T05:07:41;6.95;;;5.53;;
38435;SDS011;24220;48.168;14.024;2023-04-23T05:10:10;6.43;;;5.53;;
38435;SDS011;24220;48.168;14.024;2023-04-23T05:12:38;5.85;;;5.25;;
38435;SDS011;24220;48.168;14.024;2023-04-23T05:15:10;6.55;;;5.70;;
38435;SDS011;24220;48.168;14.024;2023-04-23T05:17:41;5.43;;;4.93;;
38435;SDS011;24220;48.168;14.024;2023-04-23T05:20:11;5.78;;;5.03;;
38435;SDS011;24220;48.168;14.024;2023-04-23T05:22:41;7.20;;;5.07;;
38435;SDS011;24220;48.168;14.024;2023-04-23T05:25:09;7.05;;;5.50;;
38435;SDS011;24220;48.168;14.024;2023-04-23T05:27:37;6.28;;;5.68;;
38435;SDS011;24220;48.168;14.024;2023-04-23T05:30:06;6.05;;;5.03;;
38435;SDS011;24220;48.168;14.024;2023-04-23T05:32:35;5.45;;;4.85;;
38435;SDS011;24220;48.168;14.024;2023-04-23T05:35:03;6.75;;;5.07;;
38435;SDS011;24220;48.168;14.024;2023-04-23T05:37:31;8.00;;;5.53;;
38435;SDS011;24220;48.168;14.024;2023-04-23T05:39:59;6.78;;;5.53;;
38435;SDS011;24220;48.168;14.024;2023-04-23T05:42:28;5.40;;;4.90;;
38435;SDS011;24220;48.168;14.024;2023-04-23T05:44:57;5.95;;;4.95;;
38435;SDS011;24220;48.168;14.024;2023-04-23T05:47:25;7.78;;;5.00;;
38435;SDS011;24220;48.168;14.024;2023-04-23T05:49:52;6.68;;;5.30;;
38435;SDS011;24220;48.168;14.024;2023-04-23T05:52:19;7.53;;;5.03;;
38435;SDS011;24220;48.168;14.024;2023-04-23T05:54:50;5.88;;;5.32;;
38435;SDS011;24220;48.168;14.024;2023-04-23T05:57:17;5.07;;;4.57;;
38435;SDS011;24220;48.168;14.024;2023-04-23T05:59:49;6.65;;;5.25;;
38435;SDS011;24220;48.168;14.024;2023-04-23T06:02:19;6.25;;;5.57;;
38435;SDS011;24220;48.168;14.024;2023-04-23T06:04:50;5.50;;;4.95;;
38435;SDS011;24220;48.168;14.024;2023-04-23T06:07:18;6.78;;;5.45;;
38435;SDS011;24220;48.168;14.024;2023-04-23T06:09:46;9.50;;;5.70;;
38435;SDS011;24220;48.168;14.024;2023-04-23T06:12:13;5.72;;;5.20;;
38435;SDS011;24220;48.168;14.024;2023-04-23T06:14:43;6.55;;;5.40;;
38435;SDS011;24220;48.168;14.024;2023-04-23T06:17:13;7.35;;;6.10;;
38435;SDS011;24220;48.168;14.024;2023-04-23T06:19:45;6.50;;;5.90;;
38435;SDS011;24220;48.168;14.024;2023-04-23T06:22:15;7.50;;;6.47;;
38435;SDS011;24220;48.168;14.024;2023-04-23T06:24:45;9.65;;;6.00;;
38435;SDS011;24220;48.168;14.024;2023-04-23T06:27:16;7.72;;;6.70;;
38435;SDS011;24220;48.168;14.024;2023-04-23T06:29:44;7.47;;;6.05;;
38435;SDS011;24220;48.168;14.024;2023-04-23T06:32:14;7.43;;;6.50;;
38435;SDS011;24220;48.168;14.024;2023-04-23T06:34:45;7.53;;;6.63;;
38435;SDS011;24220;48.168;14.024;2023-04-23T06:37:27;7.15;;;6.45;;
38435;SDS011;24220;48.168;14.024;2023-04-23T06:39:59;7.97;;;6.40;;
38435;SDS011;24220;48.168;14.024;2023-04-23T06:42:27;6.53;;;5.72;;
38435;SDS011;24220;48.168;14.024;2023-04-23T06:44:54;7.30;;;6.43;;
38435;SDS011;24220;48.168;14.024;2023-04-23T06:47:22;8.05;;;6.57;;
38435;SDS011;24220;48.168;14.024;2023-04-23T06:49:50;7.50;;;6.32;;
38435;SDS011;24220;48.168;14.024;2023-04-23T06:52:17;6.95;;;6.22;;
38435;SDS011;24220;48.168;14.024;2023-04-23T06:54:47;7.07;;;5.85;;
38435;SDS011;24220;48.168;14.024;2023-04-23T06:57:15;9.40;;;6.22;;
38435;SDS011;24220;48.168;14.024;2023-04-23T06:59:42;6.65;;;5.93;;
38435;SDS011;24220;48.168;14.024;2023-04-23T07:02:09;6.20;;;5.60;;
38435;SDS011;24220;48.168;14.024;2023-04-23T07:04:36;7.35;;;5.65;;
38435;SDS011;24220;48.168;14.024;2023-04-23T07:07:04;6.75;;;5.75;;
38435;SDS011;24220;48.168;14.024;2023-04-23T07:09:32;7.10;;;5.72;;
38435;SDS011;24220;48.168;14.024;2023-04-23T07:11:59;6.82;;;6.13;;
38435;SDS011;24220;48.168;14.024;2023-04-23T07:14:29;5.45;;;4.90;;
38435;SDS011;24220;48.168;14.024;2023-04-23T07:16:59;6.93;;;5.60;;
38435;SDS011;24220;48.168;14.024;2023-04-23T07:19:26;6.80;;;5.32;;
38435;SDS011;24220;48.168;14.024;2023-04-23T07:21:54;6.05;;;5.30;;
38435;SDS011;24220;48.168;14.024;2023-04-23T07:24:21;5.90;;;4.93;;
38435;SDS011;24220;48.168;14.024;2023-04-23T07:26:48;5.93;;;5.25;;
38435;SDS011;24220;48.168;14.024;2023-04-23T07:29:18;7.32;;;5.72;;
38435;SDS011;24220;48.168;14.024;2023-04-23T07:31:45;6.60;;;5.35;;
38435;SDS011;24220;48.168;14.024;2023-04-23T07:34:15;5.90;;;5.30;;
38435;SDS011;24220;48.168;14.024;2023-04-23T07:36:46;5.93;;;4.80;;
38435;SDS011;24220;48.168;14.024;2023-04-23T07:39:15;5.93;;;5.05;;
38435;SDS011;24220;48.168;14.024;2023-04-23T07:41:43;4.75;;;4.35;;
38435;SDS011;24220;48.168;14.024;2023-04-23T07:44:15;5.50;;;4.53;;
38435;SDS011;24220;48.168;14.024;2023-04-23T07:46:42;5.82;;;5.22;;
38435;SDS011;24220;48.168;14.024;2023-04-23T07:49:12;5.45;;;4.80;;
38435;SDS011;24220;48.168;14.024;2023-04-23T07:51:39;4.82;;;4.30;;
38435;SDS011;24220;48.168;14.024;2023-04-23T07:54:07;6.35;;;4.88;;
38435;SDS011;24220;48.168;14.024;2023-04-23T07:56:35;6.53;;;4.50;;
38435;SDS011;24220;48.168;14.024;2023-04-23T07:59:05;6.65;;;4.57;;
38435;SDS011;24220;48.168;14.024;2023-04-23T08:01:33;4.95;;;4.45;;
38435;SDS011;24220;48.168;14.024;2023-04-23T08:04:00;5.70;;;4.35;;
38435;SDS011;24220;48.168;14.024;2023-04-23T08:06:30;5.07;;;4.50;;
38435;SDS011;24220;48.168;14.024;2023-04-23T08:09:00;4.65;;;4.25;;
38435;SDS011;24220;48.168;14.024;2023-04-23T08:11:32;5.35;;;4.05;;
38435;SDS011;24220;48.168;14.024;2023-04-23T08:13:59;6.10;;;4.70;;
38435;SDS011;24220;48.168;14.024;2023-04-23T08:16:29;5.78;;;4.30;;
38435;SDS011;24220;48.168;14.024;2023-04-23T08:19:00;7.53;;;4.50;;
38435;SDS011;24220;48.168;14.024;2023-04-23T08:21:32;5.03;;;4.07;;
38435;SDS011;24220;48.168;14.024;2023-04-23T08:23:59;4.88;;;4.20;;
38435;SDS011;24220;48.168;14.024;2023-04-23T08:26:29;4.78;;;4.28;;
38435;SDS011;24220;48.168;14.024;2023-04-23T08:28:57;4.28;;;3.88;;
38435;SDS011;24220;48.168;14.024;2023-04-23T08:31:26;4.50;;;4.10;;
38435;SDS011;24220;48.168;14.024;2023-04-23T08:33:54;5.15;;;4.50;;
38435;SDS011;24220;48.168;14.024;2023-04-23T08:36:24;5.05;;;3.95;;
38435;SDS011;24220;48.168;14.024;2023-04-23T08:38:52;5.43;;;4.15;;
38435;SDS011;24220;48.168;14.024;2023-04-23T08:41:21;6.55;;;4.78;;
38435;SDS011;24220;48.168;14.024;2023-04-23T08:44:02;4.45;;;4.05;;
38435;SDS011;24220;48.168;14.024;2023-04-23T08:46:40;4.30;;;3.90;;
38435;SDS011;24220;48.168;14.024;2023-04-23T08:49:13;4.03;;;3.55;;
38435;SDS011;24220;48.168;14.024;2023-04-23T08:51:48;4.13;;;3.72;;
38435;SDS011;24220;48.168;14.024;2023-04-23T08:54:27;4.45;;;3.80;;
38435;SDS011;24220;48.168;14.024;2023-04-23T08:56:57;5.78;;;3.63;;
38435;SDS011;24220;48.168;14.024;2023-04-23T08:59:25;4.25;;;3.85;;
38435;SDS011;24220;48.168;14.024;2023-04-23T09:01:55;4.03;;;3.63;;
38435;SDS011;24220;48.168;14.024;2023-04-23T09:04:23;5.10;;;4.57;;
38435;SDS011;24220;48.168;14.024;2023-04-23T09:06:51;5.97;;;4.30;;
38435;SDS011;24220;48.168;14.024;2023-04-23T09:09:23;6.05;;;4.60;;
38435;SDS011;24220;48.168;14.024;2023-04-23T09:11:57;3.97;;;3.58;;
38435;SDS011;24220;48.168;14.024;2023-04-23T09:14:24;5.07;;;4.30;;
38435;SDS011;24220;48.168;14.024;2023-04-23T09:16:52;4.45;;;4.05;;
38435;SDS011;24220;48.168;14.024;2023-04-23T09:19:20;5.07;;;4.00;;
38435;SDS011;24220;48.168;14.024;2023-04-23T09:21:48;6.07;;;5.45;;
38435;SDS011;24220;48.168;14.024;2023-04-23T09:24:21;5.35;;;4.38;;
38435;SDS011;24220;48.168;14.024;2023-04-23T09:26:51;6.13;;;4.68;;
38435;SDS011;24220;48.168;14.024;2023-04-23T09:29:23;5.20;;;4.40;;
38435;SDS011;24220;48.168;14.024;2023-04-23T09:31:52;6.47;;;4.95;;
38435;SDS011;24220;48.168;14.024;2023-04-23T09:34:21;6.63;;;4.90;;
38435;SDS011;24220;48.168;14.024;2023-04-23T09:36:50;6.95;;;4.35;;
38435;SDS011;24220;48.168;14.024;2023-04-23T09:39:21;6.00;;;4.93;;
38435;SDS011;24220;48.168;14.024;2023-04-23T09:41:52;4.90;;;4.25;;
38435;SDS011;24220;48.168;14.024;2023-04-23T09:44:20;7.83;;;5.57;;
38435;SDS011;24220;48.168;14.024;2023-04-23T09:46:48;6.53;;;5.28;;
38435;SDS011;24220;48.168;14.024;2023-04-23T09:49:18;5.80;;;4.50;;
38435;SDS011;24220;48.168;14.024;2023-04-23T09:51:46;7.47;;;5.22;;
38435;SDS011;24220;48.168;14.024;2023-04-23T09:54:18;5.93;;;5.07;;
38435;SDS011;24220;48.168;14.024;2023-04-23T09:56:54;9.35;;;5.93;;
38435;SDS011;24220;48.168;14.024;2023-04-23T09:59:27;7.22;;;6.28;;
38435;SDS011;24220;48.168;14.024;2023-04-23T10:02:14;10.70;;;8.23;;
38435;SDS011;24220;48.168;14.024;2023-04-23T10:04:44;6.60;;;5.10;;
38435;SDS011;24220;48.168;14.024;2023-04-23T10:07:26;5.45;;;4.18;;
38435;SDS011;24220;48.168;14.024;2023-04-23T10:09:56;5.53;;;4.15;;
38435;SDS011;24220;48.168;14.024;2023-04-23T10:12:23;5.18;;;4.13;;
38435;SDS011;24220;48.168;14.024;2023-04-23T10:14:53;5.38;;;3.92;;
38435;SDS011;24220;48.168;14.024;2023-04-23T10:17:23;5.57;;;4.50;;
38435;SDS011;24220;48.168;14.024;2023-04-23T10:19:50;4.57;;;4.18;;
38435;SDS011;24220;48.168;14.024;2023-04-23T10:22:18;4.85;;;4.07;;
38435;SDS011;24220;48.168;14.024;2023-04-23T10:24:50;5.03;;;4.53;;
38435;SDS011;24220;48.168;14.024;2023-04-23T10:27:27;5.68;;;5.10;;
38435;SDS011;24220;48.168;14.024;2023-04-23T10:30:16;9.70;;;6.60;;
38435;SDS011;24220;48.168;14.024;2023-04-23T10:32:44;9.98;;;7.22;;
38435;SDS011;24220;48.168;14.024;2023-04-23T10:35:14;16.60;;;8.75;;
38435;SDS011;24220;48.168;14.024;2023-04-23T10:37:44;13.60;;;8.82;;
38435;SDS011;24220;48.168;14.024;2023-04-23T10:40:15;12.15;;;8.27;;
38435;SDS011;24220;48.168;14.024;2023-04-23T10:42:50;9.43;;;6.82;;
38435;SDS011;24220;48.168;14.024;2023-04-23T10:45:18;10.10;;;6.05;;
38435;SDS011;24220;48.168;14.024;2023-04-23T10:47:54;8.23;;;5.57;;
38435;SDS011;24220;48.168;14.024;2023-04-23T10:50:23;9.73;;;6.50;;
38435;SDS011;24220;48.168;14.024;2023-04-23T10:52:56;9.27;;;7.38;;
38435;SDS011;24220;48.168;14.024;2023-04-23T10:55:25;7.28;;;5.43;;
38435;SDS011;24220;48.168;14.024;2023-04-23T11:00:28;7.93;;;4.73;;
38435;SDS011;24220;48.168;14.024;2023-04-23T11:06:02;5.57;;;3.33;;
38435;SDS011;24220;48.168;14.024;2023-04-23T11:10:58;5.40;;;3.72;;
38435;SDS011;24220;48.168;14.024;2023-04-23T11:13:28;5.30;;;3.50;;
38435;SDS011;24220;48.168;14.024;2023-04-23T11:19:00;4.65;;;3.42;;
38435;SDS011;24220;48.168;14.024;2023-04-23T11:22:15;4.72;;;3.30;;
38435;SDS011;24220;48.168;14.024;2023-04-23T11:24:27;3.72;;;3.20;;
38435;SDS011;24220;48.168;14.024;2023-04-23T11:27:06;4.75;;;3.47;;
38435;SDS011;24220;48.168;14.024;2023-04-23T11:29:35;4.03;;;3.10;;
38435;SDS011;24220;48.168;14.024;2023-04-23T11:32:10;4.05;;;3.00;;
38435;SDS011;24220;48.168;14.024;2023-04-23T11:34:39;5.32;;;2.80;;
38435;SDS011;24220;48.168;14.024;2023-04-23T11:37:09;3.38;;;3.00;;
38435;SDS011;24220;48.168;14.024;2023-04-23T11:39:41;6.18;;;3.25;;
38435;SDS011;24220;48.168;14.024;2023-04-23T11:42:13;4.38;;;2.60;;
38435;SDS011;24220;48.168;14.024;2023-04-23T11:44:44;3.15;;;2.45;;
38435;SDS011;24220;48.168;14.024;2023-04-23T11:47:13;3.45;;;2.63;;
38435;SDS011;24220;48.168;14.024;2023-04-23T11:49:42;4.63;;;2.80;;
38435;SDS011;24220;48.168;14.024;2023-04-23T11:52:13;3.80;;;2.83;;
38435;SDS011;24220;48.168;14.024;2023-04-23T11:54:40;3.50;;;2.90;;
38435;SDS011;24220;48.168;14.024;2023-04-23T11:57:08;3.38;;;2.70;;
38435;SDS011;24220;48.168;14.024;2023-04-23T11:59:36;2.60;;;2.40;;
38435;SDS011;24220;48.168;14.024;2023-04-23T12:02:03;3.85;;;2.50;;
38435;SDS011;24220;48.168;14.024;2023-04-23T12:04:31;3.58;;;2.60;;
38435;SDS011;24220;48.168;14.024;2023-04-23T12:07:06;3.38;;;2.60;;
38435;SDS011;24220;48.168;14.024;2023-04-23T12:09:51;6.07;;;3.50;;
38435;SDS011;24220;48.168;14.024;2023-04-23T12:12:21;3.25;;;2.92;;
38435;SDS011;24220;48.168;14.024;2023-04-23T12:14:48;5.47;;;2.92;;
38435;SDS011;24220;48.168;14.024;2023-04-23T12:17:15;3.90;;;2.85;;
38435;SDS011;24220;48.168;14.024;2023-04-23T12:19:42;2.83;;;2.33;;
38435;SDS011;24220;48.168;14.024;2023-04-23T12:22:12;3.38;;;2.72;;
38435;SDS011;24220;48.168;14.024;2023-04-23T12:24:46;2.95;;;2.17;;
38435;SDS011;24220;48.168;14.024;2023-04-23T12:27:18;5.32;;;2.60;;
38435;SDS011;24220;48.168;14.024;2023-04-23T12:29:47;4.88;;;2.72;;
38435;SDS011;24220;48.168;14.024;2023-04-23T12:32:28;3.33;;;2.72;;
38435;SDS011;24220;48.168;14.024;2023-04-23T12:34:55;3.50;;;2.70;;
38435;SDS011;24220;48.168;14.024;2023-04-23T12:37:27;3.97;;;2.70;;
38435;SDS011;24220;48.168;14.024;2023-04-23T12:39:56;3.60;;;2.42;;
38435;SDS011;24220;48.168;14.024;2023-04-23T12:42:25;2.60;;;2.40;;
38435;SDS011;24220;48.168;14.024;2023-04-23T12:45:03;3.70;;;2.80;;
38435;SDS011;24220;48.168;14.024;2023-04-23T12:47:34;4.50;;;2.92;;
38435;SDS011;24220;48.168;14.024;2023-04-23T12:50:01;3.67;;;2.53;;
38435;SDS011;24220;48.168;14.024;2023-04-23T12:52:31;3.20;;;2.63;;
38435;SDS011;24220;48.168;14.024;2023-04-23T12:54:58;4.32;;;2.70;;
38435;SDS011;24220;48.168;14.024;2023-04-23T12:57:27;3.05;;;2.50;;
38435;SDS011;24220;48.168;14.024;2023-04-23T12:59:54;3.65;;;2.47;;
38435;SDS011;24220;48.168;14.024;2023-04-23T13:02:23;4.22;;;2.78;;
38435;SDS011;24220;48.168;14.024;2023-04-23T13:07:27;2.85;;;2.08;;
38435;SDS011;24220;48.168;14.024;2023-04-23T13:09:54;2.70;;;2.50;;
38435;SDS011;24220;48.168;14.024;2023-04-23T13:12:22;3.80;;;2.50;;
38435;SDS011;24220;48.168;14.024;2023-04-23T13:14:52;4.25;;;2.55;;
38435;SDS011;24220;48.168;14.024;2023-04-23T13:17:22;2.70;;;2.30;;
38435;SDS011;24220;48.168;14.024;2023-04-23T13:19:54;3.88;;;2.60;;
38435;SDS011;24220;48.168;14.024;2023-04-23T13:22:22;4.25;;;2.45;;
38435;SDS011;24220;48.168;14.024;2023-04-23T13:24:55;3.15;;;2.47;;
38435;SDS011;24220;48.168;14.024;2023-04-23T13:27:26;4.75;;;2.58;;
38435;SDS011;24220;48.168;14.024;2023-04-23T13:29:55;5.15;;;2.60;;
38435;SDS011;24220;48.168;14.024;2023-04-23T13:32:22;2.95;;;2.40;;
38435;SDS011;24220;48.168;14.024;2023-04-23T13:34:57;3.50;;;2.63;;
38435;SDS011;24220;48.168;14.024;2023-04-23T13:37:32;3.72;;;2.40;;
38435;SDS011;24220;48.168;14.024;2023-04-23T13:39:59;3.55;;;2.42;;
38435;SDS011;24220;48.168;14.024;2023-04-23T13:42:27;5.07;;;2.15;;
38435;SDS011;24220;48.168;14.024;2023-04-23T13:45:00;2.95;;;2.10;;
38435;SDS011;24220;48.168;14.024;2023-04-23T13:47:30;2.80;;;2.03;;
38435;SDS011;24220;48.168;14.024;2023-04-23T13:50:00;2.70;;;2.38;;
38435;SDS011;24220;48.168;14.024;2023-04-23T13:52:31;3.58;;;2.53;;
38435;SDS011;24220;48.168;14.024;2023-04-23T13:54:59;4.07;;;2.45;;
38435;SDS011;24220;48.168;14.024;2023-04-23T13:57:29;3.97;;;2.30;;
38435;SDS011;24220;48.168;14.024;2023-04-23T13:59:56;3.72;;;2.72;;
38435;SDS011;24220;48.168;14.024;2023-04-23T14:02:25;2.33;;;2.10;;
38435;SDS011;24220;48.168;14.024;2023-04-23T14:04:55;3.28;;;2.35;;
38435;SDS011;24220;48.168;14.024;2023-04-23T14:07:24;3.40;;;2.55;;
38435;SDS011;24220;48.168;14.024;2023-04-23T14:09:53;2.95;;;2.42;;
38435;SDS011;24220;48.168;14.024;2023-04-23T14:12:23;3.53;;;3.17;;
38435;SDS011;24220;48.168;14.024;2023-04-23T14:14:54;2.85;;;2.30;;
38435;SDS011;24220;48.168;14.024;2023-04-23T14:17:26;7.90;;;6.35;;
38435;SDS011;24220;48.168;14.024;2023-04-23T14:19:56;5.38;;;4.03;;
38435;SDS011;24220;48.168;14.024;2023-04-23T14:22:23;3.17;;;2.55;;
38435;SDS011;24220;48.168;14.024;2023-04-23T14:24:54;3.28;;;2.40;;
38435;SDS011;24220;48.168;14.024;2023-04-23T14:27:31;2.22;;;2.03;;
38435;SDS011;24220;48.168;14.024;2023-04-23T14:30:01;3.08;;;2.15;;
38435;SDS011;24220;48.168;14.024;2023-04-23T14:32:31;3.20;;;2.33;;
38435;SDS011;24220;48.168;14.024;2023-04-23T14:35:03;3.15;;;2.25;;
38435;SDS011;24220;48.168;14.024;2023-04-23T14:37:31;5.18;;;2.50;;
38435;SDS011;24220;48.168;14.024;2023-04-23T14:40:00;2.60;;;2.08;;
38435;SDS011;24220;48.168;14.024;2023-04-23T14:42:28;2.45;;;2.10;;
38435;SDS011;24220;48.168;14.024;2023-04-23T14:44:57;2.63;;;2.35;;
38435;SDS011;24220;48.168;14.024;2023-04-23T14:47:27;3.03;;;2.70;;
38435;SDS011;24220;48.168;14.024;2023-04-23T14:49:54;2.58;;;2.30;;
38435;SDS011;24220;48.168;14.024;2023-04-23T14:52:23;2.83;;;2.28;;
38435;SDS011;24220;48.168;14.024;2023-04-23T14:54:50;3.53;;;2.45;;
38435;SDS011;24220;48.168;14.024;2023-04-23T14:57:19;2.85;;;2.50;;
38435;SDS011;24220;48.168;14.024;2023-04-23T14:59:47;2.72;;;2.50;;
38435;SDS011;24220;48.168;14.024;2023-04-23T15:02:14;3.80;;;3.03;;